sensor_id;sensor_type;location;lat;lon;timestamp;P1;durP1;ratioP1;P2;durP2;ratioP2
8913;SDS011;4492;48.736;9.092;2023-01-30T00:00:56;18.57;;;10.03;;
8913;SDS011;4492;48.736;9.092;2023-01-30T00:03:24;17.87;;;9.47;;
8913;SDS011;4492;48.736;9.092;2023-01-30T00:05:49;22.53;;;10.73;;
8913;SDS011;4492;48.736;9.092;2023-01-30T00:08:15;21.23;;;11.40;;
8913;SDS011;4492;48.736;9.092;2023-01-30T00:10:41;27.10;;;11.33;;
8913;SDS011;4492;48.736;9.092;2023-01-30T00:13:08;23.20;;;10.60;;
8913;SDS011;4492;48.736;9.092;2023-01-30T00:15:34;27.57;;;11.93;;
8913;SDS011;4492;48.736;9.092;2023-01-30T00:17:59;27.50;;;11.23;;
8913;SDS011;4492;48.736;9.092;2023-01-30T00:20:25;24.63;;;11.73;;
8913;SDS011;4492;48.736;9.092;2023-01-30T00:22:50;26.80;;;11.70;;
8913;SDS011;4492;48.736;9.092;2023-01-30T00:25:16;24.37;;;12.10;;
8913;SDS011;4492;48.736;9.092;2023-01-30T00:27:41;23.27;;;10.77;;
8913;SDS011;4492;48.736;9.092;2023-01-30T00:30:07;23.23;;;11.07;;
8913;SDS011;4492;48.736;9.092;2023-01-30T00:32:33;25.60;;;11.67;;
8913;SDS011;4492;48.736;9.092;2023-01-30T00:34:59;23.60;;;11.47;;
8913;SDS011;4492;48.736;9.092;2023-01-30T00:37:24;22.30;;;11.20;;
8913;SDS011;4492;48.736;9.092;2023-01-30T00:39:50;23.57;;;11.20;;
8913;SDS011;4492;48.736;9.092;2023-01-30T00:42:15;22.53;;;10.43;;
8913;SDS011;4492;48.736;9.092;2023-01-30T00:45:01;24.23;;;11.17;;
8913;SDS011;4492;48.736;9.092;2023-01-30T00:47:45;29.03;;;10.73;;
8913;SDS011;4492;48.736;9.092;2023-01-30T00:50:12;27.20;;;10.80;;
8913;SDS011;4492;48.736;9.092;2023-01-30T00:52:37;20.27;;;10.13;;
8913;SDS011;4492;48.736;9.092;2023-01-30T00:55:03;19.93;;;10.33;;
8913;SDS011;4492;48.736;9.092;2023-01-30T00:57:29;23.43;;;10.93;;
8913;SDS011;4492;48.736;9.092;2023-01-30T00:59:54;20.90;;;10.40;;
8913;SDS011;4492;48.736;9.092;2023-01-30T01:02:20;21.40;;;9.97;;
8913;SDS011;4492;48.736;9.092;2023-01-30T01:04:45;19.87;;;10.00;;
8913;SDS011;4492;48.736;9.092;2023-01-30T01:07:12;21.53;;;10.50;;
8913;SDS011;4492;48.736;9.092;2023-01-30T01:09:37;17.63;;;9.50;;
8913;SDS011;4492;48.736;9.092;2023-01-30T01:12:03;18.23;;;9.40;;
8913;SDS011;4492;48.736;9.092;2023-01-30T01:14:31;17.60;;;9.17;;
8913;SDS011;4492;48.736;9.092;2023-01-30T01:16:57;18.87;;;9.53;;
8913;SDS011;4492;48.736;9.092;2023-01-30T01:19:22;20.10;;;9.73;;
8913;SDS011;4492;48.736;9.092;2023-01-30T01:21:48;23.67;;;10.93;;
8913;SDS011;4492;48.736;9.092;2023-01-30T01:24:14;19.37;;;9.57;;
8913;SDS011;4492;48.736;9.092;2023-01-30T01:26:40;20.70;;;9.77;;
8913;SDS011;4492;48.736;9.092;2023-01-30T01:29:07;18.37;;;9.40;;
8913;SDS011;4492;48.736;9.092;2023-01-30T01:31:36;21.87;;;9.63;;
8913;SDS011;4492;48.736;9.092;2023-01-30T01:34:02;19.40;;;9.97;;
8913;SDS011;4492;48.736;9.092;2023-01-30T01:36:27;19.23;;;10.33;;
8913;SDS011;4492;48.736;9.092;2023-01-30T01:38:53;20.47;;;9.10;;
8913;SDS011;4492;48.736;9.092;2023-01-30T01:41:18;20.97;;;10.00;;
8913;SDS011;4492;48.736;9.092;2023-01-30T01:46:32;20.10;;;9.53;;
8913;SDS011;4492;48.736;9.092;2023-01-30T01:49:16;20.30;;;10.07;;
8913;SDS011;4492;48.736;9.092;2023-01-30T01:54:33;23.27;;;9.90;;
8913;SDS011;4492;48.736;9.092;2023-01-30T01:57:11;20.67;;;9.40;;
8913;SDS011;4492;48.736;9.092;2023-01-30T01:59:46;19.93;;;9.90;;
8913;SDS011;4492;48.736;9.092;2023-01-30T02:02:18;21.57;;;9.77;;
8913;SDS011;4492;48.736;9.092;2023-01-30T02:04:46;17.57;;;9.37;;
8913;SDS011;4492;48.736;9.092;2023-01-30T02:10:02;22.73;;;10.23;;
8913;SDS011;4492;48.736;9.092;2023-01-30T02:12:28;20.27;;;10.47;;
8913;SDS011;4492;48.736;9.092;2023-01-30T02:14:55;17.77;;;9.93;;
8913;SDS011;4492;48.736;9.092;2023-01-30T02:17:23;18.03;;;9.40;;
8913;SDS011;4492;48.736;9.092;2023-01-30T02:22:25;19.83;;;9.80;;
8913;SDS011;4492;48.736;9.092;2023-01-30T02:30:41;21.13;;;10.53;;
8913;SDS011;4492;48.736;9.092;2023-01-30T02:36:15;18.83;;;10.30;;
8913;SDS011;4492;48.736;9.092;2023-01-30T02:41:42;24.20;;;10.53;;
8913;SDS011;4492;48.736;9.092;2023-01-30T02:44:29;20.03;;;10.10;;
8913;SDS011;4492;48.736;9.092;2023-01-30T02:47:12;26.00;;;11.20;;
8913;SDS011;4492;48.736;9.092;2023-01-30T02:49:44;23.10;;;10.83;;
8913;SDS011;4492;48.736;9.092;2023-01-30T02:52:14;25.93;;;11.20;;
8913;SDS011;4492;48.736;9.092;2023-01-30T02:54:40;22.73;;;10.70;;
8913;SDS011;4492;48.736;9.092;2023-01-30T02:57:19;21.47;;;9.73;;
8913;SDS011;4492;48.736;9.092;2023-01-30T02:59:56;22.23;;;10.53;;
8913;SDS011;4492;48.736;9.092;2023-01-30T03:02:35;24.33;;;10.73;;
8913;SDS011;4492;48.736;9.092;2023-01-30T03:05:37;24.30;;;10.30;;
8913;SDS011;4492;48.736;9.092;2023-01-30T03:10:58;22.47;;;10.80;;
8913;SDS011;4492;48.736;9.092;2023-01-30T03:13:41;27.93;;;11.57;;
8913;SDS011;4492;48.736;9.092;2023-01-30T03:16:19;24.67;;;10.33;;
8913;SDS011;4492;48.736;9.092;2023-01-30T03:18:50;23.73;;;11.00;;
8913;SDS011;4492;48.736;9.092;2023-01-30T03:21:16;26.53;;;11.20;;
8913;SDS011;4492;48.736;9.092;2023-01-30T03:23:43;22.73;;;10.33;;
8913;SDS011;4492;48.736;9.092;2023-01-30T03:26:13;25.53;;;11.50;;
8913;SDS011;4492;48.736;9.092;2023-01-30T03:28:43;25.83;;;11.40;;
8913;SDS011;4492;48.736;9.092;2023-01-30T03:31:12;26.80;;;11.03;;
8913;SDS011;4492;48.736;9.092;2023-01-30T03:33:37;24.57;;;10.27;;
8913;SDS011;4492;48.736;9.092;2023-01-30T03:36:03;23.73;;;11.07;;
8913;SDS011;4492;48.736;9.092;2023-01-30T03:38:29;22.97;;;10.67;;
8913;SDS011;4492;48.736;9.092;2023-01-30T03:40:54;22.83;;;10.57;;
8913;SDS011;4492;48.736;9.092;2023-01-30T03:43:20;23.47;;;10.33;;
8913;SDS011;4492;48.736;9.092;2023-01-30T03:45:45;20.00;;;10.03;;
8913;SDS011;4492;48.736;9.092;2023-01-30T03:48:11;20.87;;;9.90;;
8913;SDS011;4492;48.736;9.092;2023-01-30T03:50:36;16.57;;;9.40;;
8913;SDS011;4492;48.736;9.092;2023-01-30T03:53:02;19.33;;;9.87;;
8913;SDS011;4492;48.736;9.092;2023-01-30T03:55:27;17.40;;;8.83;;
8913;SDS011;4492;48.736;9.092;2023-01-30T03:57:54;18.53;;;9.37;;
8913;SDS011;4492;48.736;9.092;2023-01-30T04:00:20;17.33;;;8.97;;
8913;SDS011;4492;48.736;9.092;2023-01-30T04:02:46;18.37;;;9.10;;
8913;SDS011;4492;48.736;9.092;2023-01-30T04:05:11;18.77;;;9.13;;
8913;SDS011;4492;48.736;9.092;2023-01-30T04:07:37;16.27;;;8.90;;
8913;SDS011;4492;48.736;9.092;2023-01-30T04:10:03;16.50;;;8.27;;
8913;SDS011;4492;48.736;9.092;2023-01-30T04:12:28;15.43;;;7.80;;
8913;SDS011;4492;48.736;9.092;2023-01-30T04:14:54;17.13;;;8.67;;
8913;SDS011;4492;48.736;9.092;2023-01-30T04:17:19;16.53;;;8.27;;
8913;SDS011;4492;48.736;9.092;2023-01-30T04:19:45;15.93;;;8.17;;
8913;SDS011;4492;48.736;9.092;2023-01-30T04:22:10;16.23;;;7.77;;
8913;SDS011;4492;48.736;9.092;2023-01-30T04:24:36;18.73;;;9.07;;
8913;SDS011;4492;48.736;9.092;2023-01-30T04:27:01;15.70;;;7.50;;
8913;SDS011;4492;48.736;9.092;2023-01-30T04:29:27;15.70;;;8.30;;
8913;SDS011;4492;48.736;9.092;2023-01-30T04:31:52;14.73;;;8.17;;
8913;SDS011;4492;48.736;9.092;2023-01-30T04:34:18;16.83;;;8.30;;
8913;SDS011;4492;48.736;9.092;2023-01-30T04:36:43;16.63;;;7.23;;
8913;SDS011;4492;48.736;9.092;2023-01-30T04:39:09;14.77;;;7.90;;
8913;SDS011;4492;48.736;9.092;2023-01-30T04:41:34;14.80;;;8.13;;
8913;SDS011;4492;48.736;9.092;2023-01-30T04:44:00;13.23;;;7.50;;
8913;SDS011;4492;48.736;9.092;2023-01-30T04:46:25;14.20;;;7.60;;
8913;SDS011;4492;48.736;9.092;2023-01-30T04:48:51;14.40;;;7.53;;
8913;SDS011;4492;48.736;9.092;2023-01-30T04:51:16;12.97;;;8.20;;
8913;SDS011;4492;48.736;9.092;2023-01-30T04:53:42;12.77;;;7.70;;
8913;SDS011;4492;48.736;9.092;2023-01-30T04:56:07;15.33;;;7.70;;
8913;SDS011;4492;48.736;9.092;2023-01-30T04:58:33;14.63;;;7.57;;
8913;SDS011;4492;48.736;9.092;2023-01-30T05:01:41;13.97;;;7.13;;
8913;SDS011;4492;48.736;9.092;2023-01-30T05:03:49;12.57;;;7.10;;
8913;SDS011;4492;48.736;9.092;2023-01-30T05:06:15;13.50;;;8.07;;
8913;SDS011;4492;48.736;9.092;2023-01-30T05:08:41;15.43;;;7.57;;
8913;SDS011;4492;48.736;9.092;2023-01-30T05:11:07;13.63;;;7.20;;
8913;SDS011;4492;48.736;9.092;2023-01-30T05:13:32;15.40;;;8.03;;
8913;SDS011;4492;48.736;9.092;2023-01-30T05:15:57;13.63;;;7.23;;
8913;SDS011;4492;48.736;9.092;2023-01-30T05:18:23;13.50;;;7.70;;
8913;SDS011;4492;48.736;9.092;2023-01-30T05:20:49;13.93;;;7.03;;
8913;SDS011;4492;48.736;9.092;2023-01-30T05:23:14;15.30;;;8.20;;
8913;SDS011;4492;48.736;9.092;2023-01-30T05:25:40;13.80;;;6.60;;
8913;SDS011;4492;48.736;9.092;2023-01-30T05:28:05;11.83;;;6.70;;
8913;SDS011;4492;48.736;9.092;2023-01-30T05:30:31;11.27;;;6.53;;
8913;SDS011;4492;48.736;9.092;2023-01-30T05:32:57;12.33;;;7.27;;
8913;SDS011;4492;48.736;9.092;2023-01-30T05:35:22;13.23;;;7.40;;
8913;SDS011;4492;48.736;9.092;2023-01-30T05:37:51;13.47;;;6.37;;
8913;SDS011;4492;48.736;9.092;2023-01-30T05:40:17;11.57;;;6.77;;
8913;SDS011;4492;48.736;9.092;2023-01-30T05:42:43;13.57;;;6.87;;
8913;SDS011;4492;48.736;9.092;2023-01-30T05:45:08;14.27;;;7.10;;
8913;SDS011;4492;48.736;9.092;2023-01-30T05:47:34;12.93;;;7.30;;
8913;SDS011;4492;48.736;9.092;2023-01-30T05:49:59;15.60;;;7.07;;
8913;SDS011;4492;48.736;9.092;2023-01-30T05:52:25;13.10;;;6.73;;
8913;SDS011;4492;48.736;9.092;2023-01-30T05:54:50;13.07;;;7.07;;
8913;SDS011;4492;48.736;9.092;2023-01-30T05:57:16;13.33;;;7.17;;
8913;SDS011;4492;48.736;9.092;2023-01-30T05:59:41;11.67;;;6.20;;
8913;SDS011;4492;48.736;9.092;2023-01-30T06:02:07;11.77;;;6.70;;
8913;SDS011;4492;48.736;9.092;2023-01-30T06:04:32;12.90;;;7.30;;
8913;SDS011;4492;48.736;9.092;2023-01-30T06:07:00;15.10;;;7.30;;
8913;SDS011;4492;48.736;9.092;2023-01-30T06:09:26;14.47;;;7.87;;
8913;SDS011;4492;48.736;9.092;2023-01-30T06:11:51;12.43;;;7.03;;
8913;SDS011;4492;48.736;9.092;2023-01-30T06:14:19;12.30;;;6.80;;
8913;SDS011;4492;48.736;9.092;2023-01-30T06:16:44;11.80;;;7.03;;
8913;SDS011;4492;48.736;9.092;2023-01-30T06:19:10;12.23;;;6.30;;
8913;SDS011;4492;48.736;9.092;2023-01-30T06:21:35;12.37;;;7.70;;
8913;SDS011;4492;48.736;9.092;2023-01-30T06:24:01;15.60;;;7.33;;
8913;SDS011;4492;48.736;9.092;2023-01-30T06:26:27;14.30;;;7.27;;
8913;SDS011;4492;48.736;9.092;2023-01-30T06:28:53;12.17;;;6.67;;
8913;SDS011;4492;48.736;9.092;2023-01-30T06:31:18;12.80;;;7.20;;
8913;SDS011;4492;48.736;9.092;2023-01-30T06:33:44;13.17;;;6.93;;
8913;SDS011;4492;48.736;9.092;2023-01-30T06:36:09;14.73;;;7.70;;
8913;SDS011;4492;48.736;9.092;2023-01-30T06:38:35;13.30;;;7.20;;
8913;SDS011;4492;48.736;9.092;2023-01-30T06:41:00;12.33;;;7.07;;
8913;SDS011;4492;48.736;9.092;2023-01-30T06:43:26;12.13;;;6.67;;
8913;SDS011;4492;48.736;9.092;2023-01-30T06:45:51;13.03;;;7.43;;
8913;SDS011;4492;48.736;9.092;2023-01-30T06:48:17;10.90;;;6.60;;
8913;SDS011;4492;48.736;9.092;2023-01-30T06:50:44;12.23;;;6.93;;
8913;SDS011;4492;48.736;9.092;2023-01-30T06:53:11;12.10;;;6.97;;
8913;SDS011;4492;48.736;9.092;2023-01-30T06:55:37;10.77;;;6.23;;
8913;SDS011;4492;48.736;9.092;2023-01-30T06:58:04;14.40;;;7.00;;
8913;SDS011;4492;48.736;9.092;2023-01-30T07:00:31;11.33;;;6.70;;
8913;SDS011;4492;48.736;9.092;2023-01-30T07:02:58;14.83;;;7.10;;
8913;SDS011;4492;48.736;9.092;2023-01-30T07:05:24;14.10;;;7.27;;
8913;SDS011;4492;48.736;9.092;2023-01-30T07:07:50;12.90;;;7.07;;
8913;SDS011;4492;48.736;9.092;2023-01-30T07:10:15;12.67;;;7.10;;
8913;SDS011;4492;48.736;9.092;2023-01-30T07:12:41;12.27;;;6.93;;
8913;SDS011;4492;48.736;9.092;2023-01-30T07:15:06;12.00;;;6.83;;
8913;SDS011;4492;48.736;9.092;2023-01-30T07:17:32;10.80;;;6.53;;
8913;SDS011;4492;48.736;9.092;2023-01-30T07:19:58;11.77;;;6.57;;
8913;SDS011;4492;48.736;9.092;2023-01-30T07:22:24;10.70;;;6.10;;
8913;SDS011;4492;48.736;9.092;2023-01-30T07:24:49;12.60;;;6.07;;
8913;SDS011;4492;48.736;9.092;2023-01-30T07:27:15;12.20;;;6.53;;
8913;SDS011;4492;48.736;9.092;2023-01-30T07:29:40;10.37;;;6.10;;
8913;SDS011;4492;48.736;9.092;2023-01-30T07:32:06;12.23;;;7.13;;
8913;SDS011;4492;48.736;9.092;2023-01-30T07:34:38;10.60;;;5.87;;
8913;SDS011;4492;48.736;9.092;2023-01-30T07:37:04;10.43;;;6.07;;
8913;SDS011;4492;48.736;9.092;2023-01-30T07:39:29;11.57;;;6.50;;
8913;SDS011;4492;48.736;9.092;2023-01-30T07:41:55;14.50;;;6.23;;
8913;SDS011;4492;48.736;9.092;2023-01-30T07:44:20;9.63;;;5.63;;
8913;SDS011;4492;48.736;9.092;2023-01-30T07:46:46;12.57;;;6.40;;
8913;SDS011;4492;48.736;9.092;2023-01-30T07:49:11;12.80;;;5.93;;
8913;SDS011;4492;48.736;9.092;2023-01-30T07:51:37;11.53;;;6.87;;
8913;SDS011;4492;48.736;9.092;2023-01-30T07:54:03;10.97;;;6.33;;
8913;SDS011;4492;48.736;9.092;2023-01-30T07:56:28;11.10;;;5.93;;
8913;SDS011;4492;48.736;9.092;2023-01-30T07:58:54;9.03;;;5.93;;
8913;SDS011;4492;48.736;9.092;2023-01-30T08:01:21;11.47;;;6.37;;
8913;SDS011;4492;48.736;9.092;2023-01-30T08:03:47;11.93;;;6.07;;
8913;SDS011;4492;48.736;9.092;2023-01-30T08:06:13;9.97;;;5.67;;
8913;SDS011;4492;48.736;9.092;2023-01-30T08:08:42;9.57;;;5.50;;
8913;SDS011;4492;48.736;9.092;2023-01-30T08:11:09;10.97;;;6.53;;
8913;SDS011;4492;48.736;9.092;2023-01-30T08:13:34;11.97;;;5.87;;
8913;SDS011;4492;48.736;9.092;2023-01-30T08:16:03;12.07;;;6.47;;
8913;SDS011;4492;48.736;9.092;2023-01-30T08:18:30;11.90;;;5.90;;
8913;SDS011;4492;48.736;9.092;2023-01-30T08:21:00;8.73;;;5.67;;
8913;SDS011;4492;48.736;9.092;2023-01-30T08:23:27;11.30;;;6.23;;
8913;SDS011;4492;48.736;9.092;2023-01-30T08:25:54;9.93;;;5.40;;
8913;SDS011;4492;48.736;9.092;2023-01-30T08:28:23;11.87;;;5.83;;
8913;SDS011;4492;48.736;9.092;2023-01-30T08:30:49;9.33;;;5.73;;
8913;SDS011;4492;48.736;9.092;2023-01-30T08:33:18;11.33;;;5.90;;
8913;SDS011;4492;48.736;9.092;2023-01-30T08:35:44;11.10;;;6.10;;
8913;SDS011;4492;48.736;9.092;2023-01-30T08:38:10;7.93;;;5.07;;
8913;SDS011;4492;48.736;9.092;2023-01-30T08:40:36;8.93;;;5.37;;
8913;SDS011;4492;48.736;9.092;2023-01-30T08:43:02;8.53;;;5.43;;
8913;SDS011;4492;48.736;9.092;2023-01-30T08:45:28;9.53;;;5.27;;
8913;SDS011;4492;48.736;9.092;2023-01-30T08:48:00;9.83;;;5.40;;
8913;SDS011;4492;48.736;9.092;2023-01-30T08:50:29;7.03;;;5.10;;
8913;SDS011;4492;48.736;9.092;2023-01-30T08:52:56;8.97;;;5.17;;
8913;SDS011;4492;48.736;9.092;2023-01-30T08:55:26;9.17;;;5.40;;
8913;SDS011;4492;48.736;9.092;2023-01-30T08:57:51;6.93;;;4.50;;
8913;SDS011;4492;48.736;9.092;2023-01-30T09:00:20;8.43;;;4.87;;
8913;SDS011;4492;48.736;9.092;2023-01-30T09:02:46;9.50;;;5.20;;
8913;SDS011;4492;48.736;9.092;2023-01-30T09:05:11;6.67;;;4.50;;
8913;SDS011;4492;48.736;9.092;2023-01-30T09:07:37;8.40;;;5.13;;
8913;SDS011;4492;48.736;9.092;2023-01-30T09:10:03;9.07;;;5.03;;
8913;SDS011;4492;48.736;9.092;2023-01-30T09:12:29;9.00;;;5.27;;
8913;SDS011;4492;48.736;9.092;2023-01-30T09:14:54;7.43;;;4.80;;
8913;SDS011;4492;48.736;9.092;2023-01-30T09:17:22;8.80;;;5.20;;
8913;SDS011;4492;48.736;9.092;2023-01-30T09:19:48;6.77;;;4.73;;
8913;SDS011;4492;48.736;9.092;2023-01-30T09:22:15;7.07;;;4.20;;
8913;SDS011;4492;48.736;9.092;2023-01-30T09:24:41;7.40;;;4.83;;
8913;SDS011;4492;48.736;9.092;2023-01-30T09:27:07;6.83;;;4.37;;
8913;SDS011;4492;48.736;9.092;2023-01-30T09:29:32;8.70;;;4.40;;
8913;SDS011;4492;48.736;9.092;2023-01-30T09:31:58;10.83;;;4.13;;
8913;SDS011;4492;48.736;9.092;2023-01-30T09:34:24;6.43;;;4.00;;
8913;SDS011;4492;48.736;9.092;2023-01-30T09:36:53;7.97;;;4.80;;
8913;SDS011;4492;48.736;9.092;2023-01-30T09:39:19;5.30;;;3.90;;
8913;SDS011;4492;48.736;9.092;2023-01-30T09:44:40;8.03;;;4.03;;
8913;SDS011;4492;48.736;9.092;2023-01-30T09:52:43;9.03;;;4.10;;
8913;SDS011;4492;48.736;9.092;2023-01-30T09:55:30;8.27;;;4.40;;
8913;SDS011;4492;48.736;9.092;2023-01-30T09:57:58;5.77;;;3.80;;
8913;SDS011;4492;48.736;9.092;2023-01-30T10:00:29;6.37;;;3.80;;
8913;SDS011;4492;48.736;9.092;2023-01-30T10:03:12;6.77;;;3.90;;
8913;SDS011;4492;48.736;9.092;2023-01-30T10:05:54;5.73;;;3.77;;
8913;SDS011;4492;48.736;9.092;2023-01-30T10:08:37;6.50;;;3.57;;
8913;SDS011;4492;48.736;9.092;2023-01-30T10:28:14;4.37;;;3.27;;
8913;SDS011;4492;48.736;9.092;2023-01-30T10:30:50;5.40;;;3.37;;
8913;SDS011;4492;48.736;9.092;2023-01-30T10:33:28;3.40;;;2.80;;
8913;SDS011;4492;48.736;9.092;2023-01-30T10:36:00;3.73;;;2.60;;
8913;SDS011;4492;48.736;9.092;2023-01-30T10:38:36;4.23;;;2.73;;
8913;SDS011;4492;48.736;9.092;2023-01-30T10:41:13;3.77;;;2.43;;
8913;SDS011;4492;48.736;9.092;2023-01-30T10:43:52;5.03;;;2.70;;
8913;SDS011;4492;48.736;9.092;2023-01-30T10:49:38;4.00;;;2.13;;
8913;SDS011;4492;48.736;9.092;2023-01-30T10:52:26;1.80;;;1.50;;
8913;SDS011;4492;48.736;9.092;2023-01-30T10:55:19;4.63;;;1.90;;
8913;SDS011;4492;48.736;9.092;2023-01-30T11:00:36;3.50;;;2.10;;
8913;SDS011;4492;48.736;9.092;2023-01-30T11:08:27;2.20;;;2.00;;
8913;SDS011;4492;48.736;9.092;2023-01-30T11:10:55;5.03;;;2.33;;
8913;SDS011;4492;48.736;9.092;2023-01-30T11:13:23;2.53;;;2.33;;
8913;SDS011;4492;48.736;9.092;2023-01-30T11:15:56;4.13;;;2.73;;
8913;SDS011;4492;48.736;9.092;2023-01-30T11:18:24;2.73;;;2.50;;
8913;SDS011;4492;48.736;9.092;2023-01-30T11:21:13;4.47;;;2.90;;
8913;SDS011;4492;48.736;9.092;2023-01-30T11:24:17;4.57;;;2.93;;
8913;SDS011;4492;48.736;9.092;2023-01-30T11:26:44;5.07;;;3.17;;
8913;SDS011;4492;48.736;9.092;2023-01-30T11:29:30;6.17;;;3.50;;
8913;SDS011;4492;48.736;9.092;2023-01-30T11:32:03;5.37;;;3.17;;
8913;SDS011;4492;48.736;9.092;2023-01-30T11:34:30;7.13;;;3.87;;
8913;SDS011;4492;48.736;9.092;2023-01-30T11:37:22;3.77;;;3.17;;
8913;SDS011;4492;48.736;9.092;2023-01-30T11:39:55;8.77;;;3.37;;
8913;SDS011;4492;48.736;9.092;2023-01-30T11:42:23;4.90;;;3.00;;
8913;SDS011;4492;48.736;9.092;2023-01-30T11:44:59;4.77;;;3.40;;
8913;SDS011;4492;48.736;9.092;2023-01-30T11:47:26;5.97;;;4.00;;
8913;SDS011;4492;48.736;9.092;2023-01-30T11:49:54;6.30;;;3.70;;
8913;SDS011;4492;48.736;9.092;2023-01-30T11:52:23;5.57;;;3.70;;
8913;SDS011;4492;48.736;9.092;2023-01-30T11:54:52;4.17;;;3.27;;
8913;SDS011;4492;48.736;9.092;2023-01-30T11:57:24;6.23;;;3.73;;
8913;SDS011;4492;48.736;9.092;2023-01-30T12:02:24;5.37;;;3.50;;
8913;SDS011;4492;48.736;9.092;2023-01-30T12:05:04;5.37;;;3.80;;
8913;SDS011;4492;48.736;9.092;2023-01-30T12:07:33;4.03;;;2.93;;
8913;SDS011;4492;48.736;9.092;2023-01-30T12:10:00;4.73;;;3.23;;
8913;SDS011;4492;48.736;9.092;2023-01-30T12:12:48;6.77;;;3.43;;
8913;SDS011;4492;48.736;9.092;2023-01-30T12:15:29;5.20;;;3.63;;
8913;SDS011;4492;48.736;9.092;2023-01-30T12:29:30;5.73;;;3.50;;
8913;SDS011;4492;48.736;9.092;2023-01-30T12:32:02;6.90;;;3.20;;
8913;SDS011;4492;48.736;9.092;2023-01-30T12:34:37;5.63;;;3.33;;
8913;SDS011;4492;48.736;9.092;2023-01-30T12:42:49;11.00;;;4.40;;
8913;SDS011;4492;48.736;9.092;2023-01-30T12:45:30;4.70;;;3.40;;
8913;SDS011;4492;48.736;9.092;2023-01-30T12:48:24;7.20;;;3.47;;
8913;SDS011;4492;48.736;9.092;2023-01-30T13:05:02;5.67;;;3.33;;
8913;SDS011;4492;48.736;9.092;2023-01-30T13:07:45;4.53;;;3.10;;
8913;SDS011;4492;48.736;9.092;2023-01-30T13:10:47;6.80;;;3.47;;
8913;SDS011;4492;48.736;9.092;2023-01-30T13:16:12;13.50;;;5.17;;
8913;SDS011;4492;48.736;9.092;2023-01-30T13:18:58;6.30;;;3.33;;
8913;SDS011;4492;48.736;9.092;2023-01-30T13:21:49;10.90;;;3.63;;
8913;SDS011;4492;48.736;9.092;2023-01-30T13:24:30;4.83;;;2.93;;
8913;SDS011;4492;48.736;9.092;2023-01-30T13:27:15;8.53;;;3.67;;
8913;SDS011;4492;48.736;9.092;2023-01-30T13:29:43;7.43;;;3.50;;
8913;SDS011;4492;48.736;9.092;2023-01-30T13:32:20;9.60;;;3.70;;
8913;SDS011;4492;48.736;9.092;2023-01-30T13:34:52;7.77;;;3.97;;
8913;SDS011;4492;48.736;9.092;2023-01-30T13:37:20;9.57;;;3.97;;
8913;SDS011;4492;48.736;9.092;2023-01-30T13:42:31;8.03;;;4.10;;
8913;SDS011;4492;48.736;9.092;2023-01-30T13:45:02;10.03;;;3.73;;
8913;SDS011;4492;48.736;9.092;2023-01-30T13:47:37;7.33;;;3.63;;
8913;SDS011;4492;48.736;9.092;2023-01-30T13:53:08;6.40;;;2.67;;
8913;SDS011;4492;48.736;9.092;2023-01-30T13:55:57;4.23;;;2.80;;
8913;SDS011;4492;48.736;9.092;2023-01-30T14:20:32;2.63;;;2.23;;
8913;SDS011;4492;48.736;9.092;2023-01-30T14:25:54;4.17;;;2.20;;
8913;SDS011;4492;48.736;9.092;2023-01-30T14:30:48;3.37;;;2.10;;
8913;SDS011;4492;48.736;9.092;2023-01-30T14:35:43;1.83;;;1.47;;
8913;SDS011;4492;48.736;9.092;2023-01-30T14:40:46;1.43;;;1.00;;
8913;SDS011;4492;48.736;9.092;2023-01-30T14:45:48;2.53;;;1.10;;
8913;SDS011;4492;48.736;9.092;2023-01-30T14:59:22;2.27;;;1.63;;
8913;SDS011;4492;48.736;9.092;2023-01-30T15:02:17;2.40;;;2.07;;
8913;SDS011;4492;48.736;9.092;2023-01-30T15:04:56;4.07;;;1.93;;
8913;SDS011;4492;48.736;9.092;2023-01-30T15:07:27;2.77;;;1.63;;
8913;SDS011;4492;48.736;9.092;2023-01-30T15:26:37;4.47;;;2.33;;
8913;SDS011;4492;48.736;9.092;2023-01-30T15:29:28;3.83;;;2.57;;
8913;SDS011;4492;48.736;9.092;2023-01-30T15:32:13;5.03;;;2.83;;
8913;SDS011;4492;48.736;9.092;2023-01-30T15:34:47;3.07;;;2.70;;
8913;SDS011;4492;48.736;9.092;2023-01-30T15:42:45;3.87;;;2.50;;
8913;SDS011;4492;48.736;9.092;2023-01-30T15:45:18;3.73;;;2.27;;
8913;SDS011;4492;48.736;9.092;2023-01-30T15:48:27;4.03;;;2.70;;
8913;SDS011;4492;48.736;9.092;2023-01-30T15:51:14;4.57;;;2.80;;
8913;SDS011;4492;48.736;9.092;2023-01-30T15:53:43;4.13;;;2.83;;
8913;SDS011;4492;48.736;9.092;2023-01-30T15:56:13;6.27;;;2.90;;
8913;SDS011;4492;48.736;9.092;2023-01-30T15:58:42;5.20;;;3.00;;
8913;SDS011;4492;48.736;9.092;2023-01-30T16:01:09;2.67;;;2.47;;
8913;SDS011;4492;48.736;9.092;2023-01-30T16:03:46;6.67;;;2.87;;
8913;SDS011;4492;48.736;9.092;2023-01-30T16:06:21;3.93;;;2.97;;
8913;SDS011;4492;48.736;9.092;2023-01-30T16:09:36;3.47;;;2.87;;
8913;SDS011;4492;48.736;9.092;2023-01-30T16:11:44;4.67;;;3.13;;
8913;SDS011;4492;48.736;9.092;2023-01-30T16:14:11;5.00;;;3.17;;
8913;SDS011;4492;48.736;9.092;2023-01-30T16:16:38;4.73;;;2.70;;
8913;SDS011;4492;48.736;9.092;2023-01-30T16:19:14;4.93;;;3.13;;
8913;SDS011;4492;48.736;9.092;2023-01-30T16:22:00;6.07;;;2.80;;
8913;SDS011;4492;48.736;9.092;2023-01-30T16:24:29;5.53;;;3.57;;
8913;SDS011;4492;48.736;9.092;2023-01-30T16:27:06;5.80;;;3.40;;
8913;SDS011;4492;48.736;9.092;2023-01-30T16:29:46;3.90;;;3.03;;
8913;SDS011;4492;48.736;9.092;2023-01-30T16:32:15;4.23;;;3.43;;
8913;SDS011;4492;48.736;9.092;2023-01-30T16:34:43;5.63;;;3.27;;
8913;SDS011;4492;48.736;9.092;2023-01-30T16:39:40;5.63;;;3.60;;
8913;SDS011;4492;48.736;9.092;2023-01-30T16:42:25;7.00;;;3.20;;
8913;SDS011;4492;48.736;9.092;2023-01-30T16:47:43;4.73;;;3.00;;
8913;SDS011;4492;48.736;9.092;2023-01-30T16:50:18;4.33;;;3.00;;
8913;SDS011;4492;48.736;9.092;2023-01-30T16:52:50;5.37;;;3.40;;
8913;SDS011;4492;48.736;9.092;2023-01-30T16:55:18;4.23;;;3.00;;
8913;SDS011;4492;48.736;9.092;2023-01-30T16:57:49;4.60;;;2.97;;
8913;SDS011;4492;48.736;9.092;2023-01-30T17:00:22;4.47;;;3.07;;
8913;SDS011;4492;48.736;9.092;2023-01-30T17:02:51;3.43;;;3.00;;
8913;SDS011;4492;48.736;9.092;2023-01-30T17:05:21;6.10;;;3.20;;
8913;SDS011;4492;48.736;9.092;2023-01-30T17:07:50;3.57;;;2.97;;
8913;SDS011;4492;48.736;9.092;2023-01-30T17:12:52;4.97;;;2.90;;
8913;SDS011;4492;48.736;9.092;2023-01-30T17:17:44;4.73;;;2.90;;
8913;SDS011;4492;48.736;9.092;2023-01-30T17:20:13;4.43;;;2.90;;
8913;SDS011;4492;48.736;9.092;2023-01-30T17:22:42;10.30;;;3.33;;
8913;SDS011;4492;48.736;9.092;2023-01-30T17:27:50;3.97;;;3.33;;
8913;SDS011;4492;48.736;9.092;2023-01-30T17:30:17;6.53;;;3.00;;
8913;SDS011;4492;48.736;9.092;2023-01-30T17:32:43;4.53;;;3.13;;
8913;SDS011;4492;48.736;9.092;2023-01-30T17:35:10;4.60;;;2.90;;
8913;SDS011;4492;48.736;9.092;2023-01-30T17:37:36;6.27;;;3.30;;
8913;SDS011;4492;48.736;9.092;2023-01-30T17:40:02;4.20;;;3.20;;
8913;SDS011;4492;48.736;9.092;2023-01-30T17:42:38;5.43;;;3.20;;
8913;SDS011;4492;48.736;9.092;2023-01-30T17:45:03;12.90;;;5.57;;
8913;SDS011;4492;48.736;9.092;2023-01-30T17:47:29;8.27;;;3.80;;
8913;SDS011;4492;48.736;9.092;2023-01-30T17:49:55;5.77;;;3.70;;
8913;SDS011;4492;48.736;9.092;2023-01-30T17:52:20;5.50;;;3.40;;
8913;SDS011;4492;48.736;9.092;2023-01-30T17:54:46;6.67;;;3.77;;
8913;SDS011;4492;48.736;9.092;2023-01-30T17:57:11;6.17;;;3.60;;
8913;SDS011;4492;48.736;9.092;2023-01-30T17:59:39;5.00;;;3.20;;
8913;SDS011;4492;48.736;9.092;2023-01-30T18:02:05;5.77;;;3.70;;
8913;SDS011;4492;48.736;9.092;2023-01-30T18:04:33;6.47;;;3.37;;
8913;SDS011;4492;48.736;9.092;2023-01-30T18:06:59;6.17;;;3.13;;
8913;SDS011;4492;48.736;9.092;2023-01-30T18:09:28;6.07;;;3.50;;
8913;SDS011;4492;48.736;9.092;2023-01-30T18:11:54;11.03;;;4.10;;
8913;SDS011;4492;48.736;9.092;2023-01-30T18:14:20;7.67;;;3.80;;
8913;SDS011;4492;48.736;9.092;2023-01-30T18:16:46;6.23;;;3.80;;
8913;SDS011;4492;48.736;9.092;2023-01-30T18:19:12;4.63;;;3.40;;
8913;SDS011;4492;48.736;9.092;2023-01-30T18:21:41;5.23;;;3.60;;
8913;SDS011;4492;48.736;9.092;2023-01-30T18:24:09;7.80;;;3.87;;
8913;SDS011;4492;48.736;9.092;2023-01-30T18:26:36;7.50;;;3.80;;